createdAt,value
2023-04-07T00:01:41.870Z,13.55
2023-04-07T00:04:02.316Z,12.02
2023-04-07T00:06:22.866Z,11.85
2023-04-07T00:08:42.924Z,13.48
2023-04-07T00:11:03.012Z,15.23
2023-04-07T00:13:23.004Z,13.68
2023-04-07T00:15:43.197Z,13.50
2023-04-07T00:18:03.521Z,13.88
2023-04-07T00:20:23.907Z,13.68
2023-04-07T00:22:44.019Z,14.45
2023-04-07T00:25:04.731Z,15.35
2023-04-07T00:27:25.791Z,15.05
2023-04-07T00:29:46.259Z,13.30
2023-04-07T00:32:06.817Z,14.25
2023-04-07T00:34:26.894Z,13.77
2023-04-07T00:36:51.417Z,18.83
2023-04-07T00:39:11.721Z,14.85
2023-04-07T00:41:34.232Z,14.45
2023-04-07T00:43:54.699Z,80.95
2023-04-07T00:46:15.096Z,59.80
2023-04-07T00:48:37.143Z,21.17
2023-04-07T00:50:57.405Z,23.58
2023-04-07T00:53:17.828Z,20.13
2023-04-07T00:55:38.660Z,22.20
2023-04-07T00:57:58.811Z,25.20
2023-04-07T01:00:19.003Z,20.52
2023-04-07T01:02:45.368Z,21.58
2023-04-07T01:05:12.063Z,18.55
2023-04-07T01:07:38.834Z,16.35
2023-04-07T01:10:02.294Z,14.88
2023-04-07T01:12:34.282Z,15.15
2023-04-07T01:14:55.818Z,13.85
2023-04-07T01:17:16.372Z,13.65
2023-04-07T01:19:36.477Z,13.80
2023-04-07T01:21:58.070Z,13.50
2023-04-07T01:24:30.295Z,14.73
2023-04-07T01:26:51.439Z,13.00
2023-04-07T01:29:26.949Z,13.18
2023-04-07T01:31:49.012Z,14.32
2023-04-07T01:34:10.951Z,15.33
2023-04-07T01:36:31.564Z,15.63
2023-04-07T01:38:52.347Z,14.88
2023-04-07T01:41:15.335Z,14.60
2023-04-07T01:43:36.661Z,15.18
2023-04-07T01:45:57.793Z,14.65
2023-04-07T01:48:18.446Z,14.27
2023-04-07T01:50:38.680Z,14.02
2023-04-07T01:52:59.258Z,14.43
2023-04-07T01:55:19.628Z,13.32
2023-04-07T01:57:40.291Z,14.65
2023-04-07T02:00:00.896Z,14.20
2023-04-07T02:02:21.287Z,15.65
2023-04-07T02:04:51.118Z,14.65
2023-04-07T02:07:15.214Z,15.23
2023-04-07T02:09:36.085Z,12.90
2023-04-07T02:11:57.537Z,15.02
2023-04-07T02:14:20.692Z,13.73
2023-04-07T02:16:41.509Z,12.95
2023-04-07T02:19:02.985Z,13.13
2023-04-07T02:21:24.310Z,13.50
2023-04-07T02:23:44.704Z,14.57
2023-04-07T02:26:05.655Z,12.20
2023-04-07T02:28:25.948Z,13.80
2023-04-07T02:30:46.137Z,13.13
2023-04-07T02:33:06.319Z,16.40
2023-04-07T02:35:29.341Z,14.52
2023-04-07T02:37:49.919Z,12.63
2023-04-07T02:40:10.478Z,13.38
2023-04-07T02:42:31.022Z,14.68
2023-04-07T02:44:51.370Z,13.95
2023-04-07T02:47:11.798Z,13.75
2023-04-07T02:49:31.956Z,12.82
2023-04-07T02:51:52.014Z,14.15
2023-04-07T02:54:12.272Z,16.10
2023-04-07T02:56:32.713Z,13.32
2023-04-07T02:58:53.188Z,13.73
2023-04-07T03:01:13.505Z,14.38
2023-04-07T03:03:33.698Z,13.55
2023-04-07T03:05:54.046Z,15.15
2023-04-07T03:08:14.279Z,16.00
2023-04-07T03:10:35.434Z,18.00
2023-04-07T03:12:55.819Z,18.30
2023-04-07T03:15:18.297Z,23.00
2023-04-07T03:17:39.744Z,18.15
2023-04-07T03:20:00.313Z,16.23
2023-04-07T03:22:20.539Z,16.13
2023-04-07T03:24:40.594Z,15.02
2023-04-07T03:27:01.600Z,12.98
2023-04-07T03:29:21.945Z,14.40
2023-04-07T03:31:42.389Z,15.48
2023-04-07T03:34:02.353Z,16.33
2023-04-07T03:36:23.794Z,15.02
2023-04-07T03:38:44.078Z,14.27
2023-04-07T03:41:04.097Z,13.80
2023-04-07T03:43:24.834Z,14.45
2023-04-07T03:45:45.288Z,14.43
2023-04-07T03:48:05.543Z,15.20
2023-04-07T03:50:25.755Z,13.98
2023-04-07T03:52:46.709Z,15.45
2023-04-07T03:55:07.330Z,15.27
2023-04-07T03:57:27.670Z,14.65
2023-04-07T03:59:50.452Z,15.98
2023-04-07T04:02:10.927Z,15.68
2023-04-07T04:04:31.435Z,15.60
2023-04-07T04:06:52.007Z,14.45
2023-04-07T04:09:12.400Z,17.02
2023-04-07T04:11:32.524Z,16.90
2023-04-07T04:13:52.978Z,24.40
2023-04-07T04:16:15.248Z,34.05
2023-04-07T04:18:35.879Z,39.00
2023-04-07T04:20:55.968Z,41.25
2023-04-07T04:23:16.181Z,35.38
2023-04-07T04:25:38.848Z,31.90
2023-04-07T04:27:59.105Z,21.17
2023-04-07T04:30:19.383Z,18.77
2023-04-07T04:32:40.292Z,21.02
2023-04-07T04:35:01.131Z,20.27
2023-04-07T04:37:21.741Z,15.63
2023-04-07T04:39:41.909Z,18.13
2023-04-07T04:42:03.135Z,17.65
2023-04-07T04:44:23.381Z,17.05
2023-04-07T04:46:43.682Z,14.18
2023-04-07T04:49:03.800Z,16.83
2023-04-07T04:51:24.320Z,14.57
2023-04-07T04:53:45.236Z,19.00
2023-04-07T04:56:05.873Z,90.57
2023-04-07T04:58:26.503Z,25.38
2023-04-07T05:00:46.993Z,29.60
2023-04-07T05:03:07.134Z,23.42
2023-04-07T05:05:27.597Z,21.98
2023-04-07T05:07:47.887Z,21.33
2023-04-07T05:10:08.414Z,38.65
2023-04-07T05:12:28.823Z,42.90
2023-04-07T05:14:48.906Z,43.08
2023-04-07T05:17:09.123Z,43.20
2023-04-07T05:19:32.068Z,49.45
2023-04-07T05:21:52.697Z,44.88
2023-04-07T05:24:12.719Z,43.90
2023-04-07T05:26:33.025Z,38.60
2023-04-07T05:28:53.253Z,22.90
2023-04-07T05:31:13.491Z,19.10
2023-04-07T05:33:33.947Z,19.85
2023-04-07T05:35:54.352Z,19.85
2023-04-07T05:38:16.129Z,16.98
2023-04-07T05:40:37.585Z,19.52
2023-04-07T05:42:58.219Z,27.77
2023-04-07T05:45:18.377Z,27.08
2023-04-07T05:47:38.574Z,18.92
2023-04-07T05:49:58.790Z,22.50
2023-04-07T05:52:18.809Z,14.88
2023-04-07T05:54:40.166Z,17.85
2023-04-07T05:57:00.718Z,21.75
2023-04-07T05:59:21.115Z,18.10
2023-04-07T06:01:42.536Z,16.83
2023-04-07T06:04:03.652Z,17.52
2023-04-07T06:06:24.130Z,17.95
2023-04-07T06:08:44.724Z,20.75
2023-04-07T06:11:05.330Z,19.20
2023-04-07T06:13:25.763Z,19.40
2023-04-07T06:15:46.349Z,21.35
2023-04-07T06:18:06.496Z,23.45
2023-04-07T06:20:27.263Z,21.98
2023-04-07T06:22:47.656Z,21.08
2023-04-07T06:25:08.102Z,18.90
2023-04-07T06:27:28.771Z,18.98
2023-04-07T06:29:48.888Z,17.23
2023-04-07T06:32:09.158Z,15.20
2023-04-07T06:34:29.497Z,15.57
2023-04-07T06:36:49.915Z,13.13
2023-04-07T06:39:10.202Z,12.70
2023-04-07T06:41:31.086Z,16.92
2023-04-07T06:43:51.184Z,14.52
2023-04-07T06:46:11.402Z,16.05
2023-04-07T06:48:31.544Z,22.63
2023-04-07T06:50:52.253Z,49.97
2023-04-07T06:53:12.675Z,18.92
2023-04-07T06:55:32.917Z,15.30
2023-04-07T06:57:53.355Z,19.88
2023-04-07T07:00:14.362Z,16.90
2023-04-07T07:02:34.780Z,12.30
2023-04-07T07:04:54.895Z,11.35
2023-04-07T07:07:15.340Z,8.30
2023-04-07T07:09:35.811Z,7.63
2023-04-07T07:11:56.980Z,6.97
2023-04-07T07:14:17.151Z,7.78
2023-04-07T07:16:37.336Z,6.63
2023-04-07T07:18:57.305Z,7.68
2023-04-07T07:21:18.114Z,9.40
2023-04-07T07:23:37.962Z,7.88
2023-04-07T07:25:58.156Z,7.95
2023-04-07T07:28:18.260Z,7.57
2023-04-07T07:30:40.616Z,6.75
2023-04-07T07:33:00.664Z,6.50
2023-04-07T07:35:21.305Z,7.75
2023-04-07T07:37:43.725Z,7.63
2023-04-07T07:40:03.901Z,8.27
2023-04-07T07:42:24.090Z,8.15
2023-04-07T07:44:44.349Z,8.02
2023-04-07T07:47:04.824Z,9.25
2023-04-07T07:49:25.053Z,14.27
2023-04-07T07:51:46.114Z,7.78
2023-04-07T07:54:06.484Z,11.25
2023-04-07T07:56:26.885Z,12.68
2023-04-07T07:58:47.017Z,7.13
2023-04-07T08:01:07.251Z,9.50
2023-04-07T08:03:27.419Z,10.13
2023-04-07T08:05:48.588Z,7.90
2023-04-07T08:08:08.636Z,9.82
2023-04-07T08:10:28.884Z,7.90
2023-04-07T08:12:48.943Z,7.05
2023-04-07T08:15:09.781Z,8.10
2023-04-07T08:17:30.193Z,6.30
2023-04-07T08:19:50.674Z,5.55
2023-04-07T08:22:10.708Z,6.97
2023-04-07T08:24:30.935Z,5.82
2023-04-07T08:26:50.887Z,6.65
2023-04-07T08:29:11.199Z,6.47
2023-04-07T08:31:31.497Z,6.60
2023-04-07T08:33:57.404Z,6.53
2023-04-07T08:36:17.584Z,6.50
2023-04-07T08:38:37.833Z,6.55
2023-04-07T08:41:27.538Z,6.47
2023-04-07T08:43:49.039Z,6.95
2023-04-07T08:46:10.834Z,6.00
2023-04-07T08:48:34.273Z,8.20
2023-04-07T08:50:54.900Z,6.13
2023-04-07T08:53:18.916Z,5.05
2023-04-07T08:55:40.817Z,5.47
2023-04-07T08:58:02.257Z,5.95
2023-04-07T09:00:22.741Z,6.05
2023-04-07T09:02:48.229Z,6.53
2023-04-07T09:05:08.898Z,5.28
2023-04-07T09:07:29.101Z,5.25
2023-04-07T09:09:48.940Z,5.00
2023-04-07T09:12:09.234Z,5.55
2023-04-07T09:14:29.349Z,4.72
2023-04-07T09:16:49.561Z,4.50
2023-04-07T09:19:09.699Z,5.18
2023-04-07T09:21:49.317Z,4.85
2023-04-07T09:24:26.311Z,5.30
2023-04-07T09:26:46.254Z,5.30
2023-04-07T09:29:06.713Z,4.47
2023-04-07T09:31:47.081Z,4.43
2023-04-07T09:34:23.369Z,5.35
2023-04-07T09:36:43.302Z,4.55
2023-04-07T09:39:08.356Z,5.93
2023-04-07T09:41:28.792Z,4.53
2023-04-07T09:43:49.797Z,4.47
2023-04-07T09:46:18.168Z,4.78
2023-04-07T09:48:39.249Z,5.15
2023-04-07T09:51:06.438Z,4.57
2023-04-07T09:53:41.425Z,6.13
2023-04-07T09:56:01.776Z,4.68
2023-04-07T09:58:22.503Z,4.95
2023-04-07T10:00:42.712Z,4.95
2023-04-07T10:03:03.808Z,5.03
2023-04-07T10:05:24.261Z,3.85
2023-04-07T10:07:44.326Z,4.65
2023-04-07T10:10:07.304Z,4.45
2023-04-07T10:12:28.054Z,3.90
2023-04-07T10:14:48.897Z,4.75
2023-04-07T10:17:09.368Z,4.93
2023-04-07T10:19:33.183Z,4.40
2023-04-07T10:21:54.814Z,5.43
2023-04-07T10:24:30.647Z,4.13
2023-04-07T10:26:57.192Z,4.30
2023-04-07T10:29:19.003Z,4.88
2023-04-07T10:31:39.301Z,4.70
2023-04-07T10:34:00.864Z,3.85
2023-04-07T10:36:21.633Z,4.50
2023-04-07T10:38:42.047Z,3.60
2023-04-07T10:41:22.201Z,6.32
2023-04-07T10:43:44.355Z,5.28
2023-04-07T10:46:04.320Z,4.07
2023-04-07T10:48:24.279Z,4.07
2023-04-07T10:51:10.019Z,3.80
2023-04-07T10:53:30.789Z,2.92
2023-04-07T10:55:55.280Z,2.83
2023-04-07T10:58:22.001Z,3.72
2023-04-07T11:00:42.767Z,3.42
2023-04-07T11:03:12.476Z,3.47
2023-04-07T11:05:33.220Z,3.42
2023-04-07T11:07:58.718Z,2.85
2023-04-07T11:10:19.764Z,3.38
2023-04-07T11:12:40.083Z,3.60
2023-04-07T11:15:16.458Z,5.50
2023-04-07T11:17:36.954Z,2.95
2023-04-07T11:19:58.070Z,3.00
2023-04-07T11:22:28.478Z,3.13
2023-04-07T11:24:50.452Z,2.65
2023-04-07T11:27:14.201Z,4.95
2023-04-07T11:29:34.496Z,2.60
2023-04-07T11:31:55.767Z,2.70
2023-04-07T11:34:16.402Z,4.13
2023-04-07T11:36:40.336Z,4.72
2023-04-07T11:39:01.601Z,3.10
2023-04-07T11:41:21.895Z,3.03
2023-04-07T11:43:42.689Z,5.85
2023-04-07T11:46:16.003Z,2.47
2023-04-07T11:50:56.823Z,3.08
2023-04-07T11:53:25.513Z,3.10
2023-04-07T11:55:45.916Z,3.00
2023-04-07T11:58:09.273Z,2.80
2023-04-07T12:00:29.452Z,2.75
2023-04-07T12:02:49.685Z,2.70
2023-04-07T12:05:10.643Z,3.15
2023-04-07T12:07:31.081Z,3.17
2023-04-07T12:09:51.422Z,2.88
2023-04-07T12:12:11.646Z,2.63
2023-04-07T12:14:32.389Z,3.30
2023-04-07T12:16:55.445Z,3.20
2023-04-07T12:19:15.949Z,2.30
2023-04-07T12:21:36.009Z,3.05
2023-04-07T12:23:56.083Z,2.55
2023-04-07T12:26:16.346Z,3.03
2023-04-07T12:28:37.269Z,2.97
2023-04-07T12:30:58.170Z,3.58
2023-04-07T12:33:18.480Z,2.63
2023-04-07T12:35:38.685Z,3.45
2023-04-07T12:37:58.874Z,3.15
2023-04-07T12:40:19.028Z,2.92
2023-04-07T12:42:39.690Z,3.10
2023-04-07T12:45:00.159Z,2.45
2023-04-07T12:47:20.367Z,2.30
2023-04-07T12:49:40.441Z,3.40
2023-04-07T12:52:00.527Z,2.53
2023-04-07T12:54:21.052Z,2.22
2023-04-07T12:56:41.656Z,2.30
2023-04-07T12:59:01.588Z,3.75
2023-04-07T13:01:21.758Z,2.60
2023-04-07T13:03:42.523Z,1.98
2023-04-07T13:06:03.969Z,2.38
2023-04-07T13:08:24.179Z,3.45
2023-04-07T13:10:44.788Z,1.90
2023-04-07T13:13:04.641Z,2.40
2023-04-07T13:15:24.689Z,2.97
2023-04-07T13:17:44.744Z,3.40
2023-04-07T13:20:06.145Z,3.53
2023-04-07T13:22:26.475Z,3.05
2023-04-07T13:24:46.754Z,2.47
2023-04-07T13:27:07.172Z,2.65
2023-04-07T13:29:27.133Z,2.10
2023-04-07T13:31:47.790Z,3.20
2023-04-07T13:34:08.046Z,3.58
2023-04-07T13:36:29.332Z,4.93
2023-04-07T13:38:49.433Z,2.72
2023-04-07T13:41:09.379Z,2.00
2023-04-07T13:43:29.790Z,3.03
2023-04-07T13:45:50.100Z,3.72
2023-04-07T13:48:10.618Z,3.95
2023-04-07T13:50:31.194Z,3.00
2023-04-07T13:52:51.144Z,2.55
2023-04-07T13:55:11.240Z,2.50
2023-04-07T13:57:31.840Z,2.40
2023-04-07T13:59:52.416Z,2.53
2023-04-07T14:02:12.576Z,1.98
2023-04-07T14:04:33.203Z,1.88
2023-04-07T14:06:53.917Z,2.65
2023-04-07T14:09:14.308Z,2.05
2023-04-07T14:11:34.795Z,2.10
2023-04-07T14:13:58.509Z,2.15
2023-04-07T14:16:18.899Z,3.15
2023-04-07T14:18:38.910Z,1.67
2023-04-07T14:20:59.970Z,2.15
2023-04-07T14:23:30.270Z,1.77
2023-04-07T14:25:57.212Z,2.75
2023-04-07T14:28:17.441Z,2.58
2023-04-07T14:30:38.123Z,2.55
2023-04-07T14:32:58.014Z,2.20
2023-04-07T14:35:18.156Z,3.85
2023-04-07T14:37:38.232Z,2.30
2023-04-07T14:40:02.814Z,6.57
2023-04-07T14:42:23.331Z,1.80
2023-04-07T14:44:43.370Z,2.70
2023-04-07T14:47:03.356Z,2.17
2023-04-07T14:49:25.256Z,2.00
2023-04-07T14:51:45.692Z,1.90
2023-04-07T14:54:06.078Z,2.20
2023-04-07T14:56:26.667Z,2.00
2023-04-07T14:58:47.422Z,3.13
2023-04-07T15:01:07.671Z,3.45
2023-04-07T15:03:28.103Z,2.08
2023-04-07T15:05:48.024Z,2.20
2023-04-07T15:08:07.980Z,1.58
2023-04-07T15:10:29.329Z,1.85
2023-04-07T15:12:49.781Z,2.53
2023-04-07T15:15:10.111Z,2.58
2023-04-07T15:17:42.473Z,2.45
2023-04-07T15:20:03.151Z,6.43
2023-04-07T15:22:23.400Z,2.28
2023-04-07T15:24:43.675Z,2.78
2023-04-07T15:27:03.919Z,8.48
2023-04-07T15:29:24.076Z,6.65
2023-04-07T15:31:44.203Z,2.83
2023-04-07T15:34:04.679Z,2.90
2023-04-07T15:36:25.123Z,2.80
2023-04-07T15:38:45.369Z,3.17
2023-04-07T15:41:05.570Z,3.15
2023-04-07T15:43:25.818Z,5.55
2023-04-07T15:45:45.803Z,2.90
2023-04-07T15:48:06.054Z,3.80
2023-04-07T15:50:29.111Z,2.13
2023-04-07T15:52:49.540Z,3.22
2023-04-07T15:55:10.010Z,2.70
2023-04-07T15:57:30.173Z,2.60
2023-04-07T15:59:51.452Z,2.42
2023-04-07T16:02:13.000Z,2.13
2023-04-07T16:04:34.799Z,2.60
2023-04-07T16:06:54.994Z,2.22
2023-04-07T16:09:14.988Z,2.50
2023-04-07T16:11:35.318Z,2.38
2023-04-07T16:13:55.728Z,2.92
2023-04-07T16:16:15.935Z,5.28
2023-04-07T16:18:36.182Z,3.53
2023-04-07T16:20:56.531Z,10.38
2023-04-07T16:23:16.896Z,3.00
2023-04-07T16:25:37.049Z,2.20
2023-04-07T16:27:57.430Z,2.88
2023-04-07T16:30:18.228Z,4.95
2023-04-07T16:32:38.590Z,4.85
2023-04-07T16:34:58.934Z,5.35
2023-04-07T16:37:19.009Z,3.53
2023-04-07T16:39:39.123Z,4.53
2023-04-07T16:41:59.306Z,4.60
2023-04-07T16:44:21.362Z,4.18
2023-04-07T16:46:41.688Z,6.45
2023-04-07T16:49:02.867Z,3.80
2023-04-07T16:51:24.115Z,4.10
2023-04-07T16:53:44.478Z,2.75
2023-04-07T16:56:04.984Z,3.35
2023-04-07T16:58:25.398Z,3.05
2023-04-07T17:00:46.181Z,5.00
2023-04-07T17:03:06.656Z,4.32
2023-04-07T17:05:27.190Z,4.78
2023-04-07T17:07:47.670Z,3.15
2023-04-07T17:10:08.501Z,4.68
2023-04-07T17:12:29.139Z,4.28
2023-04-07T17:14:49.318Z,3.13
2023-04-07T17:17:09.665Z,3.80
2023-04-07T17:19:30.011Z,4.25
2023-04-07T17:21:50.452Z,3.35
2023-04-07T17:24:12.287Z,3.78
2023-04-07T17:26:32.676Z,3.30
2023-04-07T17:28:53.036Z,3.58
2023-04-07T17:31:13.646Z,3.58
2023-04-07T17:33:34.577Z,4.03
2023-04-07T17:35:55.450Z,4.10
2023-04-07T17:38:15.849Z,4.40
2023-04-07T17:40:36.084Z,3.13
2023-04-07T17:42:56.321Z,5.25
2023-04-07T17:45:17.148Z,5.28
2023-04-07T17:47:37.987Z,4.18
2023-04-07T17:49:58.582Z,5.18
2023-04-07T17:52:18.805Z,4.70
2023-04-07T17:54:38.926Z,3.88
2023-04-07T17:57:00.235Z,4.78
2023-04-07T17:59:20.435Z,4.40
2023-04-07T18:01:41.184Z,4.90
2023-04-07T18:04:03.114Z,5.38
2023-04-07T18:06:24.609Z,5.22
2023-04-07T18:08:45.803Z,5.40
2023-04-07T18:11:07.145Z,4.60
2023-04-07T18:13:27.668Z,3.88
2023-04-07T18:15:48.066Z,5.47
2023-04-07T18:18:09.518Z,6.78
2023-04-07T18:20:30.907Z,5.75
2023-04-07T18:22:51.994Z,6.88
2023-04-07T18:25:12.448Z,6.75
2023-04-07T18:27:32.588Z,5.07
2023-04-07T18:29:52.912Z,6.45
2023-04-07T18:32:13.092Z,6.30
2023-04-07T18:34:33.288Z,4.95
2023-04-07T18:36:53.373Z,5.00
2023-04-07T18:39:16.070Z,6.57
2023-04-07T18:41:36.354Z,4.65
2023-04-07T18:43:56.647Z,5.85
2023-04-07T18:46:17.355Z,5.57
2023-04-07T18:48:37.756Z,5.45
2023-04-07T18:50:58.234Z,5.20
2023-04-07T18:53:19.051Z,41.75
2023-04-07T18:55:39.089Z,3.97
2023-04-07T18:57:59.644Z,8.38
2023-04-07T19:00:20.264Z,7.05
2023-04-07T19:02:43.623Z,5.85
2023-04-07T19:05:05.346Z,6.70
2023-04-07T19:07:25.898Z,6.50
2023-04-07T19:09:47.316Z,12.63
2023-04-07T19:12:08.668Z,5.57
2023-04-07T19:14:28.907Z,9.90
2023-04-07T19:16:49.152Z,9.85
2023-04-07T19:19:13.516Z,5.68
2023-04-07T19:21:33.832Z,7.53
2023-04-07T19:23:55.853Z,7.32
2023-04-07T19:26:16.265Z,11.00
2023-04-07T19:28:36.673Z,5.55
2023-04-07T19:30:57.107Z,6.38
2023-04-07T19:33:17.545Z,5.72
2023-04-07T19:35:40.832Z,5.75
2023-04-07T19:38:01.701Z,5.40
2023-04-07T19:40:22.834Z,5.57
2023-04-07T19:42:42.939Z,7.43
2023-04-07T19:45:06.489Z,7.63
2023-04-07T19:47:26.862Z,5.57
2023-04-07T19:49:46.906Z,6.25
2023-04-07T19:52:07.360Z,5.88
2023-04-07T19:54:27.555Z,5.35
2023-04-07T19:56:47.772Z,5.30
2023-04-07T19:59:07.917Z,6.00
2023-04-07T20:01:28.151Z,5.05
2023-04-07T20:03:48.951Z,5.18
2023-04-07T20:06:09.722Z,6.35
2023-04-07T20:08:29.641Z,5.15
2023-04-07T20:10:53.163Z,5.50
2023-04-07T20:13:13.822Z,4.55
2023-04-07T20:15:34.281Z,4.57
2023-04-07T20:17:54.871Z,4.65
2023-04-07T20:20:15.797Z,5.65
2023-04-07T20:22:36.145Z,5.75
2023-04-07T20:24:56.380Z,5.63
2023-04-07T20:27:17.622Z,5.45
2023-04-07T20:29:38.058Z,5.97
2023-04-07T20:31:58.590Z,6.03
2023-04-07T20:34:18.672Z,6.05
2023-04-07T20:36:38.901Z,5.30
2023-04-07T20:38:59.014Z,6.50
2023-04-07T20:41:19.126Z,5.60
2023-04-07T20:43:39.555Z,4.80
2023-04-07T20:46:00.032Z,7.65
2023-04-07T20:48:23.217Z,5.25
2023-04-07T20:50:44.059Z,5.95
2023-04-07T20:53:04.439Z,5.22
2023-04-07T20:55:24.545Z,5.90
2023-04-07T20:57:44.717Z,5.57
2023-04-07T21:00:05.455Z,9.77
2023-04-07T21:02:25.653Z,6.82
2023-04-07T21:04:46.278Z,7.88
2023-04-07T21:07:06.503Z,6.65
2023-04-07T21:09:26.745Z,7.25
2023-04-07T21:11:46.854Z,7.38
2023-04-07T21:14:07.149Z,7.65
2023-04-07T21:16:27.843Z,8.05
2023-04-07T21:18:48.487Z,10.63
2023-04-07T21:21:08.986Z,7.35
2023-04-07T21:23:30.565Z,7.75
2023-04-07T21:25:50.932Z,6.90
2023-04-07T21:28:11.148Z,8.38
2023-04-07T21:30:32.539Z,7.55
2023-04-07T21:32:53.129Z,8.80
2023-04-07T21:35:13.524Z,8.60
2023-04-07T21:37:33.620Z,8.45
2023-04-07T21:39:54.216Z,9.35
2023-04-07T21:42:14.761Z,11.20
2023-04-07T21:44:35.044Z,10.75
2023-04-07T21:46:55.373Z,8.43
2023-04-07T21:49:17.414Z,12.30
2023-04-07T21:51:37.911Z,38.03
2023-04-07T21:53:58.190Z,10.93
2023-04-07T21:56:18.628Z,17.35
2023-04-07T21:58:41.050Z,14.43
2023-04-07T22:01:01.228Z,11.07
2023-04-07T22:03:21.899Z,8.88
2023-04-07T22:05:42.361Z,7.88
2023-04-07T22:08:02.640Z,10.10
2023-04-07T22:10:22.755Z,9.85
2023-04-07T22:12:42.877Z,8.75
2023-04-07T22:15:03.151Z,7.93
2023-04-07T22:17:23.471Z,9.90
2023-04-07T22:19:43.792Z,9.98
2023-04-07T22:22:06.935Z,11.57
2023-04-07T22:24:27.174Z,12.07
2023-04-07T22:26:47.418Z,11.60
2023-04-07T22:29:08.697Z,9.55
2023-04-07T22:31:29.417Z,9.60
2023-04-07T22:33:49.842Z,8.55
2023-04-07T22:36:10.083Z,7.40
2023-04-07T22:38:30.702Z,9.38
2023-04-07T22:40:50.747Z,8.45
2023-04-07T22:43:11.655Z,8.20
2023-04-07T22:45:31.793Z,8.00
2023-04-07T22:47:52.140Z,9.25
2023-04-07T22:50:12.595Z,8.90
2023-04-07T22:52:32.659Z,8.90
2023-04-07T22:54:52.929Z,8.73
2023-04-07T22:57:13.240Z,9.02
2023-04-07T22:59:33.398Z,7.80
2023-04-07T23:01:55.621Z,7.45
2023-04-07T23:04:17.321Z,8.43
2023-04-07T23:06:39.898Z,8.30
2023-04-07T23:09:00.535Z,8.63
2023-04-07T23:11:22.474Z,8.30
2023-04-07T23:13:42.863Z,8.02
2023-04-07T23:16:04.890Z,9.05
2023-04-07T23:18:24.872Z,9.82
2023-04-07T23:20:51.543Z,9.40
2023-04-07T23:23:12.045Z,8.40
2023-04-07T23:25:32.068Z,8.40
2023-04-07T23:27:52.324Z,8.05
2023-04-07T23:30:12.489Z,9.35
2023-04-07T23:32:33.128Z,9.65
2023-04-07T23:34:53.192Z,9.48
2023-04-07T23:37:13.247Z,8.68
2023-04-07T23:39:33.805Z,9.55
2023-04-07T23:41:54.124Z,8.07
2023-04-07T23:44:14.246Z,9.93
2023-04-07T23:46:34.845Z,8.63
2023-04-07T23:48:55.064Z,10.23
2023-04-07T23:51:15.232Z,9.02
2023-04-07T23:53:35.222Z,9.93
2023-04-07T23:55:55.558Z,10.68
2023-04-07T23:58:15.653Z,10.65
